Time;durP1;ratioP1;P1;durP2;ratioP2;P2;SDS_P1;SDS_P2;PMS_P1;PMS_P2;Temp;Humidity;BMP_temperature;BMP_pressure;BME280_temperature;BME280_humidity;BME280_pressure;Samples;Min_cycle;Max_cycle;Signal;HPM_P1;HPM_P2
2022/12/24 00:01:59;;;;;;;15.90;14.60;;;;;;;21.31;33.12;94887.19;6195050;28;103168;-62
2022/12/24 00:05:02;;;;;;;16.00;14.60;;;;;;;21.30;33.01;94893.59;6197372;28;103395;-62
2022/12/24 00:08:07;;;;;;;16.73;15.33;;;;;;;21.31;32.87;94894.38;6192843;28;103208;-64
2022/12/24 00:11:10;;;;;;;16.03;14.63;;;;;;;21.31;33.06;94900.47;6212406;28;103266;-62
2022/12/24 00:14:13;;;;;;;15.90;14.50;;;;;;;21.31;33.07;94895.16;6217880;28;104091;-62
2022/12/24 00:17:16;;;;;;;14.43;13.23;;;;;;;21.29;32.85;94889.34;6222029;28;103909;-62
2022/12/24 00:20:19;;;;;;;14.40;13.10;;;;;;;21.30;32.65;94890.94;6179341;28;103767;-62
2022/12/24 00:23:24;;;;;;;14.03;12.93;;;;;;;21.31;32.83;94886.38;6210275;28;102987;-62
2022/12/24 00:26:27;;;;;;;14.27;13.17;;;;;;;21.30;32.83;94896.25;6216581;28;103270;-62
2022/12/24 00:29:30;;;;;;;13.70;12.50;;;;;;;21.30;33.18;94896.25;6208522;28;102862;-62
2022/12/24 00:32:33;;;;;;;13.23;12.13;;;;;;;21.28;33.10;94893.13;6196133;28;104153;-62
2022/12/24 00:35:37;;;;;;;12.73;11.63;;;;;;;21.27;32.88;94885.44;6214298;28;103564;-62
2022/12/24 00:38:42;;;;;;;12.67;11.63;;;;;;;21.30;32.75;94879.50;6221368;28;104494;-61
2022/12/24 00:41:45;;;;;;;12.90;11.87;;;;;;;21.26;32.55;94882.00;6218286;28;104322;-63
2022/12/24 00:44:48;;;;;;;13.10;12.10;;;;;;;21.28;32.84;94882.47;6210093;27;103007;-61
2022/12/24 00:47:51;;;;;;;12.83;11.73;;;;;;;21.28;32.84;94887.78;6210651;28;103137;-61
2022/12/24 00:50:54;;;;;;;12.73;11.73;;;;;;;21.26;32.83;94882.00;6207432;28;104093;-62
2022/12/24 00:53:59;;;;;;;13.10;12.00;;;;;;;21.15;32.66;94872.66;6204522;28;102985;-62
2022/12/24 00:57:02;;;;;;;13.07;11.97;;;;;;;21.26;32.69;94889.97;6208912;28;103745;-63
2022/12/24 01:00:06;;;;;;;12.30;11.00;;;;;;;21.26;32.58;94892.63;6197035;28;104027;-62
2022/12/24 01:03:09;;;;;;;12.17;11.23;;;;;;;21.26;32.89;94889.97;6202327;28;103110;-62
2022/12/24 01:06:13;;;;;;;12.97;11.77;;;;;;;21.25;32.46;94893.72;6209673;28;103614;-62
2022/12/24 01:09:18;;;;;;;11.67;10.70;;;;;;;21.25;32.59;94888.41;6201320;28;103489;-62
2022/12/24 01:12:21;;;;;;;12.30;11.30;;;;;;;21.26;32.58;94889.19;6200988;28;103493;-61
2022/12/24 01:15:24;;;;;;;12.17;11.17;;;;;;;21.26;32.41;94892.63;6201969;28;104185;-62
2022/12/24 01:18:27;;;;;;;12.27;11.27;;;;;;;21.22;32.49;94891.69;6188845;28;103606;-61
2022/12/24 01:21:30;;;;;;;12.43;11.33;;;;;;;21.25;32.52;94893.72;6205313;28;103339;-62
2022/12/24 01:24:35;;;;;;;12.83;11.83;;;;;;;21.25;32.42;94901.72;6209002;28;105269;-62
2022/12/24 01:27:38;;;;;;;13.80;12.70;;;;;;;21.18;32.52;94888.06;6218925;28;104084;-62
2022/12/24 01:30:41;;;;;;;13.20;12.10;;;;;;;21.25;32.31;94890.28;6212983;28;104782;-62
2022/12/24 01:33:45;;;;;;;13.00;11.90;;;;;;;21.24;32.22;94883.38;6216674;28;103077;-61
2022/12/24 01:36:48;;;;;;;13.07;11.87;;;;;;;21.25;32.42;94887.63;6210296;28;103276;-61
2022/12/24 01:43:22;;;;;;;12.30;11.30;;;;;;;21.24;32.37;94884.16;6188985;28;104272;-63
2022/12/24 01:43:23;;;;;;;12.93;11.90;;;;;;;21.24;32.34;94891.38;6218462;28;102849;-62
2022/12/24 01:46:29;;;;;;;14.23;13.03;;;;;;;21.25;32.47;94892.94;6213879;28;104057;-61
2022/12/24 01:49:33;;;;;;;13.67;12.57;;;;;;;21.25;32.12;94898.25;6199863;28;104206;-61
2022/12/24 01:52:37;;;;;;;15.70;14.30;;;;;;;21.13;32.14;94880.19;6199672;28;104055;-61
2022/12/24 01:55:42;;;;;;;13.63;12.53;;;;;;;21.19;32.35;94889.63;6217883;28;106208;-63
2022/12/24 01:58:50;;;;;;;15.67;14.37;;;;;;;21.21;32.02;94892.75;6215347;28;104063;-65
2022/12/24 02:01:54;;;;;;;15.30;14.00;;;;;;;21.22;32.32;94883.69;6216548;28;103243;-61
2022/12/24 02:05:02;;;;;;;15.10;13.90;;;;;;;21.24;32.33;94891.38;6220173;28;104455;-61
2022/12/24 02:08:07;;;;;;;15.30;14.10;;;;;;;21.24;32.17;94880.72;6200567;28;103488;-61
2022/12/24 02:11:14;;;;;;;16.57;15.17;;;;;;;21.23;32.13;94877.28;6201888;28;103287;-62
2022/12/24 02:14:17;;;;;;;16.87;15.43;;;;;;;21.23;31.87;94869.28;6203497;28;105775;-62
2022/12/24 02:17:29;;;;;;;16.10;14.80;;;;;;;21.24;32.14;94873.53;6198573;28;104215;-61
2022/12/24 02:21:02;;;;;;;18.53;17.00;;;;;;;21.24;32.05;94881.50;6208880;28;103078;-61
2022/12/24 02:24:28;;;;;;;23.07;21.17;;;;;;;21.25;32.25;94885.75;6211300;28;103260;-62
2022/12/24 02:27:46;;;;;;;22.87;20.97;;;;;;;21.24;32.09;94881.50;6217650;28;104631;-62
2022/12/24 02:30:55;;;;;;;26.83;24.73;;;;;;;21.23;32.22;94879.94;6215020;28;103553;-62
2022/12/24 02:34:04;;;;;;;25.50;23.50;;;;;;;21.24;32.16;94878.84;6199525;28;103003;-64
2022/12/24 02:37:12;;;;;;;28.80;26.40;;;;;;;21.23;31.92;94885.25;6190210;28;103959;-62
2022/12/24 02:40:21;;;;;;;30.33;27.83;;;;;;;21.22;31.78;94886.34;6199116;28;103108;-64
2022/12/24 02:43:32;;;;;;;27.83;25.53;;;;;;;21.08;31.96;94857.16;6215487;28;103063;-65
2022/12/24 02:46:36;;;;;;;29.33;26.83;;;;;;;21.22;32.12;94881.03;6209412;28;104593;-64
2022/12/24 02:49:45;;;;;;;31.93;29.33;;;;;;;21.21;32.10;94877.59;6176294;28;104188;-65
2022/12/24 02:52:48;;;;;;;28.80;26.40;;;;;;;21.22;31.97;94875.72;6214561;28;104333;-66
2022/12/24 02:56:08;;;;;;;30.77;28.20;;;;;;;21.21;31.75;94871.47;6197755;28;103318;-66
2022/12/24 02:59:43;;;;;;;34.53;31.70;;;;;;;21.22;32.31;94862.41;6190557;28;103473;-64
2022/12/24 03:03:08;;;;;;;33.27;30.47;;;;;;;21.21;31.97;94858.97;6207657;28;102953;-61
2022/12/24 03:06:21;;;;;;;31.03;28.43;;;;;;;21.19;31.92;94863.81;6218191;28;103208;-61
2022/12/24 03:09:27;;;;;;;34.30;31.43;;;;;;;21.22;31.84;94859.75;6182230;28;104321;-62
2022/12/24 03:12:34;;;;;;;33.20;30.20;;;;;;;21.11;31.86;94851.22;6211949;27;103197;-62
2022/12/24 03:15:39;;;;;;;33.87;30.97;;;;;;;21.21;32.03;94877.59;6208487;28;105102;-61
2022/12/24 03:18:47;;;;;;;33.07;30.27;;;;;;;21.22;31.99;94870.38;6198445;28;103326;-62
2022/12/24 03:21:51;;;;;;;34.70;31.80;;;;;;;21.20;31.76;94868.03;6191044;27;105031;-62
2022/12/24 03:24:55;;;;;;;32.50;29.70;;;;;;;21.23;31.87;94866.63;6213717;28;103703;-61
2022/12/24 03:28:02;;;;;;;31.23;28.53;;;;;;;21.20;31.85;94864.59;6221223;28;103991;-62
2022/12/24 03:31:07;;;;;;;35.10;31.97;;;;;;;21.20;32.16;94873.34;6204006;28;104013;-62
2022/12/24 03:34:12;;;;;;;31.77;29.17;;;;;;;21.19;31.88;94868.34;6170349;28;104495;-61
2022/12/24 03:37:15;;;;;;;33.97;31.17;;;;;;;21.18;32.01;94856.91;6200452;28;103145;-61
2022/12/24 03:40:19;;;;;;;31.67;28.97;;;;;;;21.12;31.60;94857.31;6220680;28;103170;-63
2022/12/24 03:43:22;;;;;;;32.10;29.40;;;;;;;21.17;31.68;94863.31;6212656;28;103137;-66
2022/12/24 03:46:25;;;;;;;32.10;29.50;;;;;;;21.19;31.73;94869.13;6190355;28;103500;-62
2022/12/24 03:49:30;;;;;;;30.27;27.77;;;;;;;21.17;31.97;94860.66;6198981;28;103299;-62
2022/12/24 03:52:33;;;;;;;31.47;28.77;;;;;;;21.13;31.93;94862.34;6201004;28;106654;-63
2022/12/24 03:55:36;;;;;;;29.70;27.20;;;;;;;21.17;32.04;94865.16;6190384;28;105385;-62
2022/12/24 03:58:39;;;;;;;29.30;27.00;;;;;;;21.18;32.04;94875.53;6212055;28;103281;-64
2022/12/24 04:01:42;;;;;;;28.43;26.23;;;;;;;21.17;31.30;94867.81;6207673;28;103231;-62
2022/12/24 04:04:46;;;;;;;28.33;25.83;;;;;;;21.29;31.50;94867.28;6217876;28;104239;-62
2022/12/24 04:07:49;;;;;;;25.77;23.67;;;;;;;21.32;31.65;94878.09;6195936;28;104816;-63
2022/12/24 04:10:52;;;;;;;28.23;25.83;;;;;;;21.34;31.42;94877.78;6207858;28;103877;-62
2022/12/24 04:13:55;;;;;;;25.77;23.67;;;;;;;21.33;31.41;94882.34;6202101;28;104172;-63
2022/12/24 04:16:58;;;;;;;25.07;23.00;;;;;;;21.30;31.19;94880.28;6209169;28;103486;-63
2022/12/24 04:20:04;;;;;;;23.20;21.30;;;;;;;21.35;31.47;94887.38;6198640;27;103061;-63
2022/12/24 04:23:07;;;;;;;23.50;21.60;;;;;;;21.35;31.36;94893.50;6199032;28;102938;-62
2022/12/24 04:26:12;;;;;;;23.00;21.20;;;;;;;21.35;31.54;94890.03;6196462;28;104115;-62
2022/12/24 04:29:15;;;;;;;23.83;21.80;;;;;;;21.33;31.04;94887.66;6192776;28;104371;-63
2022/12/24 04:32:18;;;;;;;23.90;21.90;;;;;;;21.35;31.39;94893.50;6202191;28;103250;-62
2022/12/24 04:35:22;;;;;;;23.87;21.87;;;;;;;21.36;31.05;94904.91;6196577;28;103126;-62
2022/12/24 04:38:26;;;;;;;20.67;19.00;;;;;;;21.34;31.64;94905.22;6191784;28;103222;-62
2022/12/24 04:41:29;;;;;;;20.60;19.00;;;;;;;21.35;31.06;94909.47;6201548;28;104775;-64
2022/12/24 04:44:32;;;;;;;19.30;17.70;;;;;;;21.34;31.53;94907.88;6196834;28;103237;-63
2022/12/24 04:47:35;;;;;;;20.33;18.73;;;;;;;21.35;31.19;94919.31;6200128;28;104146;-62
2022/12/24 04:50:39;;;;;;;19.07;17.57;;;;;;;21.33;31.36;94922.25;6205806;28;103171;-63
2022/12/24 04:53:43;;;;;;;18.87;17.30;;;;;;;21.32;31.45;94920.69;6208134;28;104037;-62
2022/12/24 04:56:46;;;;;;;18.83;17.33;;;;;;;21.33;31.48;94916.94;6213350;28;103031;-62
2022/12/24 04:59:49;;;;;;;18.90;17.30;;;;;;;21.34;31.46;94915.06;6215003;28;104333;-62
2022/12/24 05:02:52;;;;;;;17.50;16.10;;;;;;;21.32;31.12;94912.69;6212061;28;103232;-62
2022/12/24 05:06:02;;;;;;;18.60;17.03;;;;;;;21.32;31.07;94915.38;6183696;28;104039;-62
2022/12/24 05:09:05;;;;;;;16.50;15.20;;;;;;;21.32;31.31;94904.72;6192474;28;103170;-62
2022/12/24 05:12:08;;;;;;;16.73;15.33;;;;;;;21.30;31.31;94906.13;6215096;28;102987;-62
2022/12/24 05:15:11;;;;;;;17.30;15.90;;;;;;;21.31;31.42;94905.81;6213453;27;104188;-64
2022/12/24 05:18:14;;;;;;;16.23;14.87;;;;;;;21.31;31.23;94897.81;6213920;28;103155;-63
2022/12/24 05:21:22;;;;;;;15.60;14.40;;;;;;;21.31;31.15;94889.84;6200032;28;103505;-62
2022/12/24 05:27:45;;;;;;;14.50;13.40;;;;;;;21.30;31.35;94880.28;6189237;28;103951;-61
2022/12/24 05:30:53;;;;;;;13.87;12.87;;;;;;;21.30;31.49;94882.94;6197676;28;103162;-62
2022/12/24 05:33:56;;;;;;;14.97;13.77;;;;;;;21.30;31.11;94879.50;6198789;28;103015;-62
2022/12/24 05:37:00;;;;;;;13.90;12.80;;;;;;;21.31;31.34;94899.69;6212193;28;103114;-63
2022/12/24 05:40:04;;;;;;;13.10;12.10;;;;;;;21.30;30.82;94885.59;6191686;28;103909;-62
2022/12/24 05:43:07;;;;;;;13.70;12.60;;;;;;;21.31;30.99;94884.50;6195011;28;104219;-62
2022/12/24 05:46:14;;;;;;;13.33;12.23;;;;;;;21.32;30.94;94882.63;6194920;28;103133;-62
2022/12/24 05:49:17;;;;;;;12.40;11.40;;;;;;;21.30;31.12;94882.94;6187270;28;103122;-64
2022/12/24 05:52:21;;;;;;;13.47;12.40;;;;;;;21.31;31.05;94884.50;6198543;28;103249;-63
2022/12/24 05:55:24;;;;;;;12.70;11.70;;;;;;;21.31;31.17;94881.84;6210878;28;103322;-62
2022/12/24 05:58:27;;;;;;;11.97;10.97;;;;;;;21.33;31.12;94877.00;6214149;28;103603;-62
2022/12/24 06:01:30;;;;;;;11.47;10.57;;;;;;;21.34;31.10;94872.47;6195622;28;103167;-63
2022/12/24 06:04:33;;;;;;;12.30;11.30;;;;;;;21.35;31.01;94879.38;6207584;28;103016;-62
2022/12/24 06:07:38;;;;;;;12.47;11.57;;;;;;;21.31;30.88;94887.19;6224002;28;103581;-63
2022/12/24 06:10:41;;;;;;;13.53;12.43;;;;;;;21.31;30.97;94892.50;6209611;28;104263;-63
2022/12/24 06:13:45;;;;;;;13.10;12.10;;;;;;;21.34;31.24;94907.88;6192900;28;103494;-62
2022/12/24 06:16:48;;;;;;;12.67;11.57;;;;;;;21.34;31.03;94891.09;6210484;28;103240;-62
2022/12/24 06:19:51;;;;;;;12.90;11.80;;;;;;;21.34;30.97;94905.22;6208642;28;103207;-62
2022/12/24 06:22:55;;;;;;;14.03;12.93;;;;;;;21.36;31.04;94918.22;6197620;28;103359;-63
2022/12/24 06:26:00;;;;;;;14.30;13.13;;;;;;;21.24;30.71;94894.81;6190921;28;103397;-62
2022/12/24 06:29:03;;;;;;;14.93;13.63;;;;;;;21.35;30.44;94927.31;6199460;28;102999;-62
2022/12/24 06:32:06;;;;;;;14.03;12.83;;;;;;;21.33;30.61;94916.16;6194527;28;103227;-62
2022/12/24 06:35:09;;;;;;;14.10;12.90;;;;;;;21.35;30.86;94919.31;6205890;28;103219;-63
2022/12/24 06:38:14;;;;;;;13.60;12.50;;;;;;;21.34;30.41;94926.53;6220048;28;103729;-62
2022/12/24 06:41:19;;;;;;;14.03;12.83;;;;;;;21.34;30.65;94934.50;6219725;28;104695;-62
2022/12/24 06:44:22;;;;;;;13.47;12.37;;;;;;;21.35;30.78;94932.63;6208762;28;104268;-62
2022/12/24 06:47:25;;;;;;;14.60;13.40;;;;;;;21.30;30.62;94928.19;6193298;28;104107;-63
2022/12/24 06:50:29;;;;;;;13.73;12.57;;;;;;;21.33;30.54;94938.22;6201672;28;103049;-63
2022/12/24 06:53:33;;;;;;;14.93;13.57;;;;;;;21.33;30.25;94940.88;6197734;28;103286;-63
2022/12/24 06:56:36;;;;;;;15.10;13.70;;;;;;;21.32;30.62;94947.31;6193197;28;103152;-64
2022/12/24 06:59:39;;;;;;;15.10;13.90;;;;;;;21.35;30.65;94952.03;6205575;28;104868;-62
2022/12/24 07:02:43;;;;;;;15.57;14.27;;;;;;;21.40;30.54;94938.59;6201276;28;104210;-63
2022/12/24 07:05:46;;;;;;;15.70;14.40;;;;;;;21.73;30.21;94960.41;6200308;28;104403;-61
2022/12/24 07:08:50;;;;;;;16.87;15.37;;;;;;;21.97;29.54;94946.75;6183609;28;103798;-61
2022/12/24 07:11:53;;;;;;;16.77;15.33;;;;;;;22.00;30.05;94946.16;6198309;28;104233;-62
2022/12/24 07:14:57;;;;;;;18.33;16.77;;;;;;;22.04;30.19;94935.69;6193280;28;102912;-61
2022/12/24 07:18:00;;;;;;;17.33;15.90;;;;;;;22.09;29.38;94927.53;6198472;28;104300;-61
2022/12/24 07:21:04;;;;;;;16.67;15.27;;;;;;;22.25;30.12;94935.91;6194106;28;104419;-62
2022/12/24 07:24:08;;;;;;;15.90;14.60;;;;;;;22.19;30.57;94939.81;6200327;28;104342;-62
2022/12/24 07:27:12;;;;;;;16.70;15.30;;;;;;;22.03;30.30;94934.91;6205892;28;103350;-60
2022/12/24 07:30:15;;;;;;;16.67;15.27;;;;;;;21.87;30.39;94948.94;6216266;28;103258;-60
2022/12/24 07:33:18;;;;;;;17.00;15.50;;;;;;;21.70;30.95;94937.06;6198094;28;103058;-62
2022/12/24 07:36:23;;;;;;;17.23;15.67;;;;;;;21.62;30.99;94939.66;6212640;28;103531;-59
2022/12/24 07:39:27;;;;;;;18.30;16.60;;;;;;;21.53;30.93;94944.97;6213178;28;104083;-64
2022/12/24 07:42:30;;;;;;;19.33;17.63;;;;;;;21.32;30.69;94922.56;6197227;28;105989;-61
2022/12/24 07:45:33;;;;;;;24.83;22.43;;;;;;;21.31;29.94;94948.38;6192591;28;104496;-62
2022/12/24 07:48:36;;;;;;;27.27;24.97;;;;;;;21.24;29.22;94947.25;6203884;28;105383;-62
2022/12/24 07:51:39;;;;;;;25.70;23.50;;;;;;;21.23;29.33;94951.78;6206495;28;105594;-61
2022/12/24 07:54:44;;;;;;;23.87;21.83;;;;;;;21.28;28.94;94946.34;6205970;27;106309;-61
2022/12/24 07:57:47;;;;;;;23.43;21.17;;;;;;;21.25;29.66;94930.19;6201518;28;104237;-61
2022/12/24 08:00:56;;;;;;;22.30;20.20;;;;;;;21.33;29.03;94956.84;6195812;28;103321;-62
2022/12/24 08:03:59;;;;;;;22.83;20.73;;;;;;;21.35;29.64;94962.69;6214643;28;104103;-62
2022/12/24 08:07:02;;;;;;;23.00;20.80;;;;;;;21.35;29.87;94968.00;6211923;27;104008;-62
2022/12/24 08:10:08;;;;;;;23.53;21.43;;;;;;;21.39;29.86;94968.97;6218622;28;103581;-61
2022/12/24 08:13:11;;;;;;;23.60;21.60;;;;;;;21.40;29.85;94965.22;6198039;28;104043;-62
2022/12/24 08:16:14;;;;;;;22.40;20.40;;;;;;;21.41;30.38;94980.09;6198526;28;105151;-61
2022/12/24 08:19:17;;;;;;;23.10;20.90;;;;;;;21.40;30.12;94981.19;6187940;28;107272;-61
2022/12/24 08:22:20;;;;;;;23.60;21.40;;;;;;;21.38;30.30;94979.94;6171946;28;103164;-62
2022/12/24 08:25:25;;;;;;;23.90;21.77;;;;;;;21.36;30.37;94974.13;6172810;28;103041;-62
2022/12/24 08:28:28;;;;;;;23.60;21.30;;;;;;;21.36;30.12;94979.44;6179855;27;103987;-61
2022/12/24 08:31:35;;;;;;;22.27;20.13;;;;;;;21.33;30.33;94966.72;6207183;27;103257;-62
2022/12/24 08:34:38;;;;;;;20.67;18.80;;;;;;;21.42;30.04;94979.00;6215117;28;104798;-62
2022/12/24 08:37:41;;;;;;;22.20;20.00;;;;;;;21.40;30.37;94978.53;6203189;28;103098;-63
2022/12/24 08:40:48;;;;;;;20.30;18.33;;;;;;;21.40;30.57;94972.41;6193256;28;104290;-62
2022/12/24 08:43:51;;;;;;;19.37;17.77;;;;;;;21.48;30.33;94953.84;6199025;28;105477;-62
2022/12/24 08:46:54;;;;;;;19.00;17.40;;;;;;;21.49;30.52;94962.59;6197576;28;106578;-61
2022/12/24 08:49:57;;;;;;;20.07;17.83;;;;;;;21.47;30.87;94949.59;6196275;28;104318;-62
2022/12/24 08:53:00;;;;;;;19.33;17.53;;;;;;;21.47;30.68;94949.59;6187635;27;106453;-61
2022/12/24 08:56:07;;;;;;;19.77;17.77;;;;;;;21.46;31.25;94942.69;6194219;28;105378;-60
2022/12/24 08:59:11;;;;;;;19.50;17.60;;;;;;;21.40;31.42;94935.94;6196648;28;104323;-61
2022/12/24 09:02:14;;;;;;;20.33;18.50;;;;;;;21.46;31.47;94942.69;6196847;28;103416;-61
2022/12/24 09:05:18;;;;;;;23.30;21.00;;;;;;;21.47;31.33;94954.91;6186665;28;104123;-61
2022/12/24 09:08:21;;;;;;;22.33;20.30;;;;;;;21.45;31.70;94951.00;6212556;28;104391;-65
2022/12/24 09:11:26;;;;;;;23.30;21.13;;;;;;;21.54;31.82;94948.41;6204562;28;103100;-63
2022/12/24 09:14:29;;;;;;;21.93;19.60;;;;;;;21.64;32.59;94953.47;6196117;28;104323;-67
2022/12/24 09:17:32;;;;;;;21.50;19.70;;;;;;;21.76;34.21;94959.81;6188593;28;103247;-63
2022/12/24 09:20:35;;;;;;;20.60;18.80;;;;;;;21.72;34.26;94960.72;6208383;28;103339;-63
2022/12/24 09:23:39;;;;;;;21.50;19.50;;;;;;;21.67;33.60;94955.50;6208810;28;104350;-64
2022/12/24 09:26:47;;;;;;;22.33;20.23;;;;;;;21.62;33.63;94955.66;6190264;28;104158;-64
2022/12/24 09:29:59;;;;;;;21.80;19.70;;;;;;;21.61;33.68;94943.41;6174764;28;103384;-63
2022/12/24 09:33:02;;;;;;;21.37;19.40;;;;;;;21.61;34.03;94948.75;6192393;28;103040;-63
2022/12/24 09:36:07;;;;;;;21.13;19.30;;;;;;;21.63;33.66;94954.56;6208446;28;104015;-63
2022/12/24 09:39:10;;;;;;;21.17;19.30;;;;;;;21.67;34.07;94952.84;6191664;28;104043;-62
2022/12/24 09:42:26;;;;;;;21.17;19.33;;;;;;;21.68;33.73;94949.91;6210597;28;103510;-62
2022/12/24 09:45:33;;;;;;;20.30;18.70;;;;;;;21.68;34.28;94944.56;6213373;28;103433;-63
2022/12/24 09:48:40;;;;;;;21.77;19.87;;;;;;;21.56;34.46;94923.03;6199245;28;103402;-66
2022/12/24 09:51:47;;;;;;;21.40;19.50;;;;;;;21.72;34.65;94945.53;6184976;28;103517;-64
2022/12/24 09:54:56;;;;;;;20.17;18.50;;;;;;;21.72;35.11;94947.41;6189577;28;103224;-63
2022/12/24 09:58:04;;;;;;;23.57;21.57;;;;;;;21.67;34.80;94942.19;6199469;28;103443;-63
2022/12/24 10:01:10;;;;;;;22.40;20.20;;;;;;;21.69;35.65;94950.69;6190210;28;103145;-65
2022/12/24 10:04:16;;;;;;;23.37;21.37;;;;;;;21.64;35.11;94935.59;6198590;28;103320;-66
2022/12/24 10:07:31;;;;;;;24.87;22.67;;;;;;;21.62;35.32;94943.13;6201380;28;103603;-66
2022/12/24 10:10:42;;;;;;;23.40;21.50;;;;;;;21.65;35.36;94947.03;6214086;28;106034;-65
2022/12/24 10:14:03;;;;;;;23.40;21.40;;;;;;;21.71;36.34;94949.28;6200859;27;104420;-66
2022/12/24 10:17:26;;;;;;;25.40;23.10;;;;;;;21.72;36.25;94950.06;6203147;28;103143;-64
2022/12/24 10:20:38;;;;;;;25.63;23.27;;;;;;;21.65;36.03;94923.06;6199977;28;103119;-65
2022/12/24 10:23:46;;;;;;;28.57;25.93;;;;;;;21.70;37.30;94937.06;6178064;28;103022;-64
2022/12/24 10:26:56;;;;;;;29.60;26.90;;;;;;;21.72;37.47;94936.75;6220213;28;103190;-64
2022/12/24 10:30:05;;;;;;;30.10;27.20;;;;;;;21.72;37.94;94926.09;6175571;28;104000;-64
2022/12/24 10:33:19;;;;;;;38.47;34.43;;;;;;;21.76;39.90;94938.50;6170549;28;104740;-64
2022/12/24 10:36:28;;;;;;;37.30;33.97;;;;;;;21.77;40.39;94942.72;6180402;28;103158;-64
2022/12/24 10:39:31;;;;;;;37.60;34.20;;;;;;;21.80;40.39;94930.66;6203610;28;104249;-63
2022/12/24 10:42:41;;;;;;;37.13;33.93;;;;;;;21.79;39.94;94935.22;6199176;28;103033;-63
2022/12/24 10:45:57;;;;;;;35.90;32.90;;;;;;;21.80;39.59;94926.13;6200185;28;103995;-66
2022/12/24 10:49:02;;;;;;;36.67;33.47;;;;;;;21.82;39.31;94923.19;6197827;28;103075;-63
2022/12/24 10:52:10;;;;;;;35.37;32.20;;;;;;;21.81;39.12;94910.94;6199104;28;103081;-65
2022/12/24 10:55:24;;;;;;;35.47;32.20;;;;;;;21.81;38.78;94913.59;6198364;28;103157;-63
2022/12/24 10:58:27;;;;;;;33.93;30.90;;;;;;;21.79;38.51;94918.44;6200513;28;104432;-65
2022/12/24 11:01:47;;;;;;;35.40;32.30;;;;;;;21.80;38.62;94915.47;6197285;28;104000;-63
2022/12/24 11:04:51;;;;;;;34.93;31.80;;;;;;;21.81;38.38;94924.25;6199858;28;106376;-63
2022/12/24 11:08:00;;;;;;;35.80;32.47;;;;;;;21.82;39.05;94925.84;6186512;28;104132;-66
2022/12/24 11:11:05;;;;;;;34.10;31.10;;;;;;;21.72;38.48;94918.91;6187228;28;103593;-63
2022/12/24 11:14:16;;;;;;;35.87;32.80;;;;;;;21.67;40.17;94928.88;6206151;28;103292;-65
2022/12/24 11:17:23;;;;;;;36.43;33.33;;;;;;;21.58;40.80;94925.41;6217333;28;103191;-65
2022/12/24 11:20:28;;;;;;;41.00;36.87;;;;;;;21.58;42.70;94912.09;6188233;28;103144;-63
2022/12/24 11:23:32;;;;;;;61.93;55.57;;;;;;;21.60;44.74;94904.56;6197738;28;104772;-65
2022/12/24 11:26:35;;;;;;;121.93;110.90;;;;;;;21.57;44.12;94903.31;6197744;28;103149;-66
2022/12/24 11:29:38;;;;;;;142.90;131.10;;;;;;;21.54;44.40;94906.59;6204405;28;105671;-64
2022/12/24 11:32:45;;;;;;;74.60;68.50;;;;;;;21.48;39.24;94908.56;6186845;28;103210;-66
2022/12/24 11:35:53;;;;;;;63.90;58.00;;;;;;;21.48;36.92;94913.91;6196254;28;103174;-63
2022/12/24 11:38:59;;;;;;;53.47;48.57;;;;;;;21.49;35.24;94920.78;6197821;28;103229;-63
2022/12/24 11:42:02;;;;;;;48.30;43.90;;;;;;;21.57;34.06;94929.16;6197396;28;103425;-61
2022/12/24 11:45:08;;;;;;;43.37;39.67;;;;;;;21.56;33.78;94919.59;6191005;28;103521;-61
2022/12/24 11:48:25;;;;;;;39.87;36.27;;;;;;;21.53;33.55;94923.66;6196661;28;104024;-63
2022/12/24 11:51:28;;;;;;;36.67;33.40;;;;;;;21.50;33.07;94918.91;6205165;28;103348;-61
2022/12/24 11:54:39;;;;;;;33.37;30.33;;;;;;;21.47;33.22;94911.53;6216991;28;106547;-62
2022/12/24 11:57:50;;;;;;;31.90;29.20;;;;;;;21.42;33.30;94904.47;6168946;28;105788;-62
2022/12/24 12:01:01;;;;;;;36.23;32.63;;;;;;;21.43;32.25;94908.72;6180683;28;104288;-63
2022/12/24 12:04:13;;;;;;;35.50;32.30;;;;;;;21.41;32.13;94902.13;6212652;28;104873;-65
2022/12/24 12:07:21;;;;;;;30.70;27.73;;;;;;;21.37;32.34;94907.28;6199848;28;105516;-62
2022/12/24 12:10:27;;;;;;;27.77;25.37;;;;;;;21.35;32.32;94904.13;6212486;28;103191;-63
2022/12/24 12:13:33;;;;;;;26.47;24.07;;;;;;;21.23;31.63;94890.59;6212847;28;103048;-65
2022/12/24 12:20:07;;;;;;;51.10;46.47;;;;;;;21.43;35.15;94899.94;6185210;28;105984;-61
2022/12/24 12:23:16;;;;;;;38.50;35.07;;;;;;;21.76;33.63;94895.09;6192391;28;103440;-62
2022/12/24 12:26:24;;;;;;;38.60;34.90;;;;;;;21.86;33.93;94892.19;6197964;28;104594;-63
2022/12/24 12:29:32;;;;;;;37.40;34.10;;;;;;;21.90;34.32;94897.69;6181044;28;104220;-65
2022/12/24 12:32:45;;;;;;;38.47;34.93;;;;;;;21.89;33.92;94890.78;6196959;28;103127;-63
2022/12/24 12:35:50;;;;;;;35.63;32.63;;;;;;;21.94;34.02;94888.00;6197711;28;104316;-63
2022/12/24 12:38:54;;;;;;;33.93;31.03;;;;;;;21.95;33.88;94901.00;6176775;28;103460;-63
2022/12/24 12:42:07;;;;;;;34.27;31.27;;;;;;;21.99;34.02;94896.63;6197035;27;104107;-64
2022/12/24 12:45:36;;;;;;;31.43;28.73;;;;;;;22.01;33.80;94897.13;6211868;28;104592;-63
2022/12/24 12:49:03;;;;;;;30.33;27.60;;;;;;;22.03;33.97;94896.81;6189766;28;104337;-64
2022/12/24 12:52:19;;;;;;;29.10;26.53;;;;;;;22.01;35.20;94898.97;6198843;28;103156;-62
2022/12/24 12:55:35;;;;;;;29.87;27.17;;;;;;;21.96;34.83;94905.22;6221531;28;104719;-64
2022/12/24 12:58:42;;;;;;;27.77;25.23;;;;;;;21.99;34.70;94904.59;6209149;28;103959;-64
2022/12/24 13:01:59;;;;;;;29.20;26.63;;;;;;;22.05;34.96;94913.28;6213420;28;104105;-64
2022/12/24 13:05:33;;;;;;;26.87;24.70;;;;;;;22.06;35.50;94915.63;6190075;28;103474;-65
2022/12/24 13:08:54;;;;;;;26.23;23.73;;;;;;;22.06;35.87;94918.28;6201923;28;103545;-63
2022/12/24 13:12:14;;;;;;;24.47;22.47;;;;;;;22.05;35.71;94911.38;6211717;28;103202;-64
2022/12/24 13:15:53;;;;;;;24.60;22.30;;;;;;;22.03;35.79;94918.91;6195172;28;103077;-65
2022/12/24 13:19:08;;;;;;;23.23;21.23;;;;;;;22.03;36.27;94923.47;6210671;28;103511;-64
2022/12/24 13:22:16;;;;;;;22.07;20.07;;;;;;;21.96;36.48;94917.78;6207796;28;104400;-64
2022/12/24 13:25:30;;;;;;;22.67;20.67;;;;;;;22.04;36.06;94925.81;6203009;28;107319;-64
2022/12/24 13:28:35;;;;;;;21.67;19.77;;;;;;;22.04;36.10;94938.34;6186854;28;104046;-64
2022/12/24 13:31:39;;;;;;;20.80;18.80;;;;;;;22.03;36.56;94950.88;6198178;28;103345;-63
2022/12/24 13:34:48;;;;;;;20.93;19.00;;;;;;;22.01;36.25;94950.41;6194818;28;103415;-63
2022/12/24 13:37:52;;;;;;;21.17;19.27;;;;;;;22.03;36.52;94952.78;6206875;27;103373;-63
2022/12/24 13:41:37;;;;;;;19.93;18.23;;;;;;;21.99;36.59;94957.13;6211383;28;103985;-64
2022/12/24 13:44:43;;;;;;;19.87;18.17;;;;;;;22.01;36.89;94950.41;6204209;28;103211;-62
2022/12/24 13:47:46;;;;;;;18.43;16.93;;;;;;;21.99;36.90;94954.44;6201376;28;103048;-63
2022/12/24 13:50:51;;;;;;;18.27;16.73;;;;;;;21.99;36.70;94959.78;6209933;27;103594;-62
2022/12/24 13:53:58;;;;;;;18.80;17.23;;;;;;;21.90;37.13;94949.09;6205026;28;104528;-65
2022/12/24 13:57:26;;;;;;;19.40;17.60;;;;;;;21.98;36.89;94963.53;6190084;28;102983;-63
2022/12/24 14:00:41;;;;;;;18.60;17.00;;;;;;;21.98;36.82;94968.88;6192490;28;104715;-63
2022/12/24 14:03:47;;;;;;;18.40;16.93;;;;;;;21.96;37.07;94963.84;6195354;28;104024;-63
2022/12/24 14:06:53;;;;;;;18.47;16.87;;;;;;;21.98;37.41;94969.66;6201347;28;103411;-62
2022/12/24 14:09:58;;;;;;;17.57;16.07;;;;;;;21.96;37.43;94957.72;6204258;28;103610;-64
2022/12/24 14:13:07;;;;;;;19.00;16.07;;;;;;;21.96;37.41;94966.50;6198538;27;103405;-64
2022/12/24 14:16:14;;;;;;;17.90;16.10;;;;;;;21.95;37.27;94962.28;6201586;28;103100;-62